Time,TemperatureF,DewpointF,PressureIn,WindDirection,WindDirectionDegrees,WindSpeedMPH,WindSpeedGustMPH,Humidity,HourlyPrecipIn,Conditions,Clouds,dailyrainin,SoftwareType,DateUTC
2013-09-19 00:21:00,62.0,58.0,29.79,South,169,0.0,0.0,86,0.00,,,0.00,,2013-09-19 07:21:00,
2013-09-19 00:52:00,62.0,58.0,29.78,South,169,0.0,0.0,86,0.00,,,0.00,,2013-09-19 07:52:00,
2013-09-19 01:21:00,62.0,58.0,29.78,South,169,0.0,0.0,87,0.00,,,0.00,,2013-09-19 08:21:00,
2013-09-19 01:52:00,61.0,57.0,29.79,South,169,0.0,0.0,88,0.00,,,0.00,,2013-09-19 08:52:00,
2013-09-19 02:21:00,61.0,57.0,29.79,South,169,0.0,0.0,87,0.00,,,0.00,,2013-09-19 09:21:00,
2013-09-19 02:53:00,60.0,56.0,29.78,South,169,0.0,0.0,87,0.00,,,0.00,,2013-09-19 09:53:00,
2013-09-19 03:23:00,60.0,56.0,29.78,South,169,0.0,0.0,88,0.00,,,0.00,,2013-09-19 10:23:00,
2013-09-19 03:52:00,60.0,56.0,29.78,South,169,0.0,0.0,88,0.00,,,0.00,,2013-09-19 10:52:00,
2013-09-19 04:22:00,60.0,56.0,29.78,South,169,0.0,0.0,88,0.00,,,0.00,,2013-09-19 11:22:00,
2013-09-19 04:52:00,60.0,56.0,29.78,South,169,0.0,0.0,88,0.00,,,0.00,,2013-09-19 11:52:00,
2013-09-19 05:21:00,59.0,55.0,29.78,South,169,0.0,0.0,88,0.00,,,0.00,,2013-09-19 12:21:00,
2013-09-19 05:52:00,59.0,55.0,29.79,South,169,0.0,0.0,88,0.00,,,0.00,,2013-09-19 12:52:00,
2013-09-19 06:21:00,59.0,56.0,29.79,South,169,0.0,0.0,89,0.00,,,0.00,,2013-09-19 13:21:00,
2013-09-19 06:52:00,59.0,56.0,29.80,South,169,0.0,0.0,89,0.00,,,0.00,,2013-09-19 13:52:00,
2013-09-19 07:22:00,58.0,55.0,29.80,South,169,0.0,0.0,89,0.00,,,0.00,,2013-09-19 14:22:00,
2013-09-19 07:52:00,58.0,55.0,29.82,South,169,0.0,0.0,89,0.00,,,0.00,,2013-09-19 14:52:00,
2013-09-19 08:21:00,59.0,56.0,29.82,South,169,0.0,0.0,90,0.00,,,0.00,,2013-09-19 15:21:00,
2013-09-19 08:53:00,60.0,57.0,29.83,South,169,0.0,0.0,90,0.00,,,0.00,,2013-09-19 15:53:00,
2013-09-19 09:03:00,60.0,57.0,29.83,South,169,0.0,0.0,90,0.00,,,0.00,,2013-09-19 16:03:00,
2013-09-19 09:23:00,62.0,59.0,29.84,South,176,0.0,0.0,90,0.00,,,0.00,,2013-09-19 16:23:00,
2013-09-19 09:52:00,63.0,60.0,29.84,SW,230,0.0,8.0,90,0.00,,,0.00,,2013-09-19 16:52:00,
2013-09-19 10:23:00,63.0,60.0,29.85,SSW,205,0.0,0.0,90,0.00,,,0.00,,2013-09-19 17:23:00,
2013-09-19 10:53:00,63.0,60.0,29.85,WSW,243,0.0,8.0,90,0.00,,,0.00,,2013-09-19 17:53:00,
2013-09-19 11:22:00,64.0,61.0,29.85,SSW,194,0.0,0.0,90,0.00,,,0.00,,2013-09-19 18:22:00,
2013-09-19 11:52:00,65.0,61.0,29.84,SSW,213,0.0,4.0,88,0.00,,,0.00,,2013-09-19 18:52:00,
2013-09-19 12:21:00,67.0,63.0,29.84,WSW,245,0.0,11.0,86,0.00,,,0.00,,2013-09-19 19:21:00,
2013-09-19 12:52:00,68.0,63.0,29.83,South,185,0.0,10.0,83,0.00,,,0.00,,2013-09-19 19:52:00,
2013-09-19 13:21:00,69.0,63.0,29.83,SW,227,0.0,13.0,80,0.00,,,0.00,,2013-09-19 20:21:00,
2013-09-19 13:52:00,70.0,63.0,29.82,SW,225,0.0,9.0,78,0.00,,,0.00,,2013-09-19 20:52:00,
2013-09-19 14:22:00,70.0,62.0,29.81,SSW,203,5.0,5.0,76,0.00,,,0.00,,2013-09-19 21:22:00,
2013-09-19 14:55:00,70.0,62.0,29.80,SW,236,5.0,8.0,75,0.00,,,0.00,,2013-09-19 21:55:00,
2013-09-19 15:24:00,70.0,62.0,29.80,SW,220,7.0,7.0,76,0.00,,,0.00,,2013-09-19 22:24:00,
2013-09-19 15:53:00,70.0,62.0,29.79,SW,219,11.0,16.0,76,0.00,,,0.00,,2013-09-19 22:53:00,
2013-09-19 16:22:00,70.0,62.0,29.78,South,189,5.0,11.0,75,0.00,,,0.00,,2013-09-19 23:22:00,
2013-09-19 16:53:00,69.0,61.0,29.78,SW,224,9.0,10.0,76,0.00,,,0.00,,2013-09-19 23:53:00,
2013-09-19 17:21:00,69.0,61.0,29.78,SSW,200,6.0,12.0,77,0.00,,,0.00,,2013-09-20 00:21:00,
2013-09-19 17:52:00,68.0,61.0,29.78,SSE,156,9.0,13.0,79,0.00,,,0.00,,2013-09-20 00:52:00,
2013-09-19 18:22:00,67.0,61.0,29.78,SSW,211,6.0,14.0,80,0.00,,,0.00,,2013-09-20 01:22:00,
2013-09-19 18:52:00,66.0,60.0,29.78,SSW,210,8.0,8.0,81,0.00,,,0.00,,2013-09-20 01:52:00,
2013-09-19 19:22:00,66.0,60.0,29.78,SW,219,0.0,0.0,82,0.00,,,0.00,,2013-09-20 02:22:00,
2013-09-19 19:52:00,66.0,61.0,29.79,SSW,193,0.0,0.0,83,0.00,,,0.00,,2013-09-20 02:52:00,
2013-09-19 20:22:00,65.0,60.0,29.80,SSW,200,0.0,4.0,84,0.00,,,0.00,,2013-09-20 03:22:00,
2013-09-19 20:56:00,64.0,59.0,29.81,SSW,197,0.0,0.0,85,0.00,,,0.00,,2013-09-20 03:56:00,
2013-09-19 21:24:00,64.0,60.0,29.82,South,173,0.0,0.0,86,0.00,,,0.00,,2013-09-20 04:24:00,
2013-09-19 21:53:00,64.0,60.0,29.83,South,173,0.0,0.0,87,0.00,,,0.00,,2013-09-20 04:53:00,
2013-09-19 22:23:00,64.0,60.0,29.83,South,173,0.0,0.0,87,0.00,,,0.00,,2013-09-20 05:23:00,
2013-09-19 22:53:00,64.0,60.0,29.83,South,173,0.0,0.0,87,0.00,,,0.00,,2013-09-20 05:53:00,
2013-09-19 23:21:00,64.0,60.0,29.83,South,173,0.0,0.0,87,0.00,,,0.00,,2013-09-20 06:21:00,
2013-09-19 23:52:00,64.0,60.0,29.84,South,173,0.0,0.0,87,0.00,,,0.00,,2013-09-20 06:52:00,